createdAt,value
2022-07-26T00:04:00.408Z,3.80
2022-07-26T00:09:02.491Z,2.70
2022-07-26T00:14:06.006Z,3.10
2022-07-26T00:19:08.069Z,3.00
2022-07-26T00:24:10.307Z,3.80
2022-07-26T00:29:12.331Z,3.30
2022-07-26T00:34:14.242Z,3.50
2022-07-26T00:39:16.122Z,3.80
2022-07-26T00:44:17.847Z,4.00
2022-07-26T00:49:24.246Z,4.00
2022-07-26T00:54:27.014Z,4.20
2022-07-26T00:59:29.064Z,4.00
2022-07-26T01:04:30.764Z,4.10
2022-07-26T01:09:33.954Z,4.10
2022-07-26T01:14:35.836Z,3.90
2022-07-26T01:19:37.467Z,3.60
2022-07-26T01:24:39.288Z,3.90
2022-07-26T01:29:41.186Z,3.90
2022-07-26T01:34:43.353Z,4.00
2022-07-26T01:39:46.079Z,4.00
2022-07-26T01:44:48.052Z,4.40
2022-07-26T01:49:49.809Z,3.80
2022-07-26T01:54:51.687Z,4.60
2022-07-26T01:59:53.570Z,3.70
2022-07-26T02:05:01.618Z,4.00
2022-07-26T02:10:03.883Z,4.30
2022-07-26T02:15:07.602Z,4.00
2022-07-26T02:20:09.995Z,3.90
2022-07-26T02:25:11.775Z,4.00
2022-07-26T02:30:14.064Z,4.20
2022-07-26T02:35:15.944Z,4.30
2022-07-26T02:40:19.565Z,4.10
2022-07-26T02:45:21.438Z,3.90
2022-07-26T02:50:24.766Z,4.80
2022-07-26T02:55:27.042Z,4.50
2022-07-26T03:00:28.744Z,5.00
2022-07-26T03:05:30.498Z,4.60
2022-07-26T03:10:32.279Z,5.20
2022-07-26T03:15:34.137Z,5.20
2022-07-26T03:20:36.033Z,4.90
2022-07-26T03:25:37.871Z,5.20
2022-07-26T03:30:39.741Z,4.90
2022-07-26T03:35:41.674Z,5.10
2022-07-26T03:40:43.656Z,4.90
2022-07-26T03:45:45.730Z,5.00
2022-07-26T03:50:47.508Z,5.70
2022-07-26T03:56:08.135Z,4.80
2022-07-26T04:01:09.971Z,5.70
2022-07-26T04:06:11.898Z,5.70
2022-07-26T04:11:14.906Z,5.80
2022-07-26T04:16:16.606Z,5.20
2022-07-26T04:21:18.557Z,5.70
2022-07-26T04:26:21.691Z,5.20
2022-07-26T04:31:23.797Z,6.00
2022-07-26T04:36:25.731Z,5.40
2022-07-26T04:41:28.049Z,6.90
2022-07-26T04:46:29.849Z,7.20
2022-07-26T04:51:31.783Z,6.40
2022-07-26T04:56:33.562Z,5.30
2022-07-26T05:01:35.384Z,5.10
2022-07-26T05:06:37.211Z,6.20
2022-07-26T05:11:38.930Z,9.40
2022-07-26T05:16:44.257Z,7.80
2022-07-26T05:21:46.630Z,6.10
2022-07-26T05:26:48.330Z,6.40
2022-07-26T05:31:50.606Z,6.20
2022-07-26T05:36:52.383Z,7.60
2022-07-26T05:41:54.163Z,7.60
2022-07-26T05:46:55.914Z,7.80
2022-07-26T05:52:01.209Z,7.90
2022-07-26T05:57:04.027Z,8.20
2022-07-26T06:02:08.036Z,8.60
2022-07-26T06:07:10.730Z,8.90
2022-07-26T06:12:12.505Z,9.10
2022-07-26T06:17:14.172Z,9.80
2022-07-26T06:22:16.164Z,11.80
2022-07-26T06:27:17.940Z,10.10
2022-07-26T06:32:19.821Z,10.80
2022-07-26T06:37:21.635Z,9.60
2022-07-26T06:42:23.386Z,10.30
2022-07-26T06:47:25.685Z,13.60
2022-07-26T06:52:27.406Z,13.50
2022-07-26T06:57:29.239Z,13.20
2022-07-26T07:02:30.994Z,16.30
2022-07-26T07:07:32.975Z,14.90
2022-07-26T07:12:35.985Z,14.60
2022-07-26T07:17:38.169Z,16.60
2022-07-26T07:22:40.050Z,16.70
2022-07-26T07:27:42.337Z,18.30
2022-07-26T07:32:44.654Z,19.30
2022-07-26T07:37:52.569Z,22.00
2022-07-26T07:42:55.972Z,19.70
2022-07-26T07:47:57.868Z,20.20
2022-07-26T07:52:59.554Z,18.30
2022-07-26T07:58:04.062Z,19.90
2022-07-26T08:03:05.840Z,16.40
2022-07-26T08:08:08.168Z,17.20
2022-07-26T08:13:10.418Z,16.00
2022-07-26T08:18:14.157Z,15.10
2022-07-26T08:23:16.122Z,14.10
2022-07-26T08:28:37.806Z,14.70
2022-07-26T08:33:40.987Z,15.30
2022-07-26T08:38:48.535Z,17.40
2022-07-26T08:43:51.946Z,19.50
2022-07-26T08:48:56.123Z,17.50
2022-07-26T08:54:04.817Z,17.60
2022-07-26T08:59:20.187Z,16.40
2022-07-26T09:04:34.526Z,16.20
2022-07-26T09:09:39.807Z,20.00
2022-07-26T09:14:41.885Z,28.70
2022-07-26T09:19:44.414Z,18.60
2022-07-26T09:24:47.105Z,17.30
2022-07-26T09:29:50.397Z,16.40
2022-07-26T09:34:58.874Z,13.20
2022-07-26T09:40:02.064Z,12.00
2022-07-26T09:45:15.181Z,12.90
2022-07-26T09:50:17.108Z,11.30
2022-07-26T09:55:19.245Z,10.80
2022-07-26T10:00:21.438Z,12.10
2022-07-26T10:05:23.237Z,11.00
2022-07-26T10:10:34.008Z,10.50
2022-07-26T10:20:42.212Z,10.20
2022-07-26T10:25:47.934Z,10.40
2022-07-26T10:30:49.722Z,9.30
2022-07-26T10:35:51.594Z,7.80
2022-07-26T10:40:56.540Z,8.30
2022-07-26T10:46:17.135Z,7.10
2022-07-26T10:56:21.151Z,8.90
2022-07-26T11:01:23.131Z,9.30
2022-07-26T11:06:27.341Z,9.20
2022-07-26T11:11:30.453Z,10.20
2022-07-26T11:16:42.365Z,10.70
2022-07-26T11:21:45.065Z,10.00
2022-07-26T11:26:47.281Z,10.80
2022-07-26T11:31:58.133Z,10.50
2022-07-26T11:37:04.456Z,10.60
2022-07-26T11:42:08.159Z,9.20
2022-07-26T11:47:10.772Z,9.40
2022-07-26T11:52:12.505Z,9.10
2022-07-26T11:57:14.607Z,9.60
2022-07-26T12:02:16.537Z,10.60
2022-07-26T12:07:21.566Z,11.40
2022-07-26T12:12:23.350Z,10.40
2022-07-26T12:17:25.201Z,10.80
2022-07-26T12:22:26.868Z,11.30
2022-07-26T12:27:30.703Z,10.90
2022-07-26T12:32:33.908Z,10.90
2022-07-26T12:38:05.186Z,10.10
2022-07-26T12:43:07.067Z,12.50
2022-07-26T12:48:12.838Z,12.40
2022-07-26T12:53:14.712Z,11.30
2022-07-26T12:58:16.795Z,10.00
2022-07-26T13:03:18.678Z,16.50
2022-07-26T13:08:20.448Z,12.70
2022-07-26T13:13:22.333Z,13.30
2022-07-26T13:18:24.001Z,10.50
2022-07-26T13:23:26.882Z,12.10
2022-07-26T13:28:29.365Z,12.10
2022-07-26T13:33:32.512Z,11.70
2022-07-26T13:38:34.593Z,10.30
2022-07-26T13:43:36.476Z,11.10
2022-07-26T13:48:48.057Z,10.30
2022-07-26T13:54:00.379Z,12.30
2022-07-26T13:59:02.395Z,10.40
2022-07-26T14:04:04.030Z,10.40
2022-07-26T14:09:10.349Z,11.70
2022-07-26T14:14:13.501Z,10.50
2022-07-26T14:19:15.746Z,10.30
2022-07-26T14:24:18.983Z,9.00
2022-07-26T14:29:22.880Z,9.40
2022-07-26T14:34:24.589Z,8.80
2022-07-26T14:39:26.439Z,8.70
2022-07-26T14:44:28.422Z,9.50
2022-07-26T14:49:30.147Z,9.90
2022-07-26T14:54:31.973Z,10.30
2022-07-26T14:59:33.859Z,10.50
2022-07-26T15:04:35.737Z,10.70
2022-07-26T15:09:37.623Z,9.40
2022-07-26T15:14:39.908Z,10.90
2022-07-26T15:19:41.682Z,9.50
2022-07-26T15:24:43.459Z,7.70
2022-07-26T15:29:47.081Z,7.80
2022-07-26T15:34:49.064Z,7.00
2022-07-26T15:39:51.844Z,6.60
2022-07-26T15:44:53.844Z,7.60
2022-07-26T15:49:56.234Z,7.00
2022-07-26T15:54:58.012Z,7.00
2022-07-26T16:00:03.780Z,7.30
2022-07-26T16:05:13.473Z,7.20
2022-07-26T16:10:16.587Z,7.50
2022-07-26T16:15:19.353Z,6.40
2022-07-26T16:20:26.385Z,6.40
2022-07-26T16:25:28.385Z,6.90
2022-07-26T16:30:30.352Z,6.30
2022-07-26T16:35:32.201Z,7.80
2022-07-26T16:40:34.282Z,6.10
2022-07-26T16:45:36.014Z,6.10
2022-07-26T16:50:37.732Z,6.60
2022-07-26T16:55:39.857Z,6.50
2022-07-26T17:00:41.853Z,6.80
2022-07-26T17:05:45.319Z,7.00
2022-07-26T17:10:47.097Z,7.10
2022-07-26T17:15:49.319Z,7.40
2022-07-26T17:20:51.179Z,7.50
2022-07-26T17:25:53.045Z,7.60
2022-07-26T17:30:54.823Z,7.40
2022-07-26T17:35:56.599Z,6.60
2022-07-26T17:41:04.218Z,7.50
2022-07-26T17:46:07.774Z,6.80
2022-07-26T17:51:09.680Z,7.20
2022-07-26T17:56:11.553Z,6.50
2022-07-26T18:01:13.556Z,6.30
2022-07-26T18:06:16.051Z,6.00
2022-07-26T18:11:17.795Z,7.10
2022-07-26T18:16:19.921Z,7.00
2022-07-26T18:21:21.619Z,7.50
2022-07-26T18:26:26.782Z,8.50
2022-07-26T18:31:29.708Z,7.30
2022-07-26T18:36:31.442Z,8.30
2022-07-26T18:41:34.310Z,8.60
2022-07-26T18:46:36.396Z,8.50
2022-07-26T18:51:38.331Z,8.70
2022-07-26T18:56:41.937Z,9.70
2022-07-26T19:01:43.625Z,9.60
2022-07-26T19:06:45.489Z,11.80
2022-07-26T19:11:51.054Z,10.60
2022-07-26T19:16:53.038Z,10.10
2022-07-26T19:21:54.725Z,10.80
2022-07-26T19:26:56.555Z,9.80
2022-07-26T19:32:00.310Z,9.80
2022-07-26T19:37:02.139Z,10.30
2022-07-26T19:42:03.964Z,11.20
2022-07-26T19:47:05.743Z,11.80
2022-07-26T19:52:11.486Z,12.20
2022-07-26T19:57:14.419Z,11.80
2022-07-26T20:02:16.816Z,12.10
2022-07-26T20:07:19.908Z,14.30
2022-07-26T20:12:21.902Z,13.20
2022-07-26T20:17:25.688Z,12.50
2022-07-26T20:22:27.705Z,12.50
2022-07-26T20:27:29.488Z,13.10
2022-07-26T20:32:31.263Z,11.90
2022-07-26T20:37:33.062Z,12.80
2022-07-26T20:42:34.923Z,15.00
2022-07-26T20:47:40.515Z,15.30
2022-07-26T20:52:42.572Z,15.90
2022-07-26T20:57:44.758Z,15.60
2022-07-26T21:02:46.964Z,17.10
2022-07-26T21:07:57.286Z,16.20
2022-07-26T21:13:01.417Z,14.30
2022-07-26T21:18:03.130Z,14.70
2022-07-26T21:23:16.847Z,14.00
2022-07-26T21:28:20.314Z,14.50
2022-07-26T21:33:25.358Z,13.40
2022-07-26T21:38:29.898Z,14.40
2022-07-26T21:43:31.711Z,14.40
2022-07-26T21:48:33.616Z,13.70
2022-07-26T21:53:35.541Z,15.00
2022-07-26T21:58:37.552Z,14.80
2022-07-26T22:03:40.257Z,16.80
2022-07-26T22:08:42.203Z,15.60
2022-07-26T22:13:45.111Z,14.60
2022-07-26T22:18:47.024Z,16.60
2022-07-26T22:23:48.968Z,17.20
2022-07-26T22:28:50.850Z,18.20
2022-07-26T22:33:52.727Z,17.70
2022-07-26T22:38:54.505Z,18.20
2022-07-26T22:43:56.391Z,18.60
2022-07-26T22:48:58.286Z,17.70
2022-07-26T22:54:00.149Z,19.70
2022-07-26T22:59:01.844Z,20.00
2022-07-26T23:04:05.010Z,20.00
2022-07-26T23:09:07.994Z,20.60
2022-07-26T23:14:10.090Z,21.30
2022-07-26T23:19:12.336Z,20.80
2022-07-26T23:24:14.493Z,20.50
2022-07-26T23:29:16.379Z,21.10
2022-07-26T23:34:18.260Z,20.30
2022-07-26T23:39:20.211Z,21.10
2022-07-26T23:44:22.012Z,21.60
2022-07-26T23:49:23.943Z,22.60
2022-07-26T23:54:25.669Z,23.20
2022-07-26T23:59:27.552Z,21.70
